Résultats

La Roquefavourette - 7.5KM. Édition 2015.

7 Km
24/05/2015 à 00:00:00 - ()
189 arrivant(e)s.


 
Les autres classements de cet évènement




Place▲ Temps Dossard Nom Prenom Categ #Categ Sexe #Sexe Club Vit Moy Diplôme Partager
1 00:26:44 668 KAMIL NORDINE SEM 1 M 1 AIX ATHLE PROVENCE 16,83
2 00:26:55 731 BARRE LUCAS SEM 2 M 2 16,72
3 00:27:44 656 BELABED AMAR SEM 3 M 3 ACRA ARLES 16,23
4 00:28:11 664 TEISSIER REMI SEM 4 M 4 A SANTE 15,97
5 00:29:21 512 BEECKMANS JEAN-CHRISTOPHE SEM 5 M 5 RUNNING SPORT SALON 15,33
6 00:29:34 730 RIBA DAMIEN SEM 6 M 6 CLES GARDANNE 15,22
7 00:29:38 511 BAYARD VINCENT SEM 7 M 7 OLYMPIQUE CABRIES CALAS 15,19
8 00:29:49 534 CLEMENTE STEPHANE V1M 1 M 8 AC LANCON 15,09
9 00:29:53 568 GERARD GUILHEM SEM 8 M 9 TEAM PROVENCE ENDURANCE 15,06
10 00:30:29 593 LEUDEUFF THOMAS SEM 9 M 10 14,76
11 00:30:52 732 SAUVE LUC V1M 2 M 11 14,58
12 00:31:25 645 VILLA CEDRIC SEM 10 M 12 AC LANCON 14,32
13 00:31:28 622 RODGERS PATRICK V1M 3 M 13 CE STMICROELECTRONICS 14,30
14 00:31:57 726 MAILLE RICHARD V1M 4 M 14 LFA TRETS 14,08
15 00:32:13 566 GAUBERT MARC V2M 1 M 15 SPEEDY CLUB DE PROVENCE 13,97
16 00:32:23 574 GORET JEAN-MARIE V3M 1 M 16 MAS DE LA CHOUETTE 13,90
17 00:32:23 567 GENTILE TONY V2M 2 M 17 ROGNAC ATHLETIC CLUB 13,90
18 00:32:54 735 HOTTIN BENJAMIN SEM 11 M 18 13,68
19 00:33:01 550 DURAND MAXENCE V1M 5 M 19 13,63
20 00:33:07 614 PALA ARNAUD SEM 12 M 20 13,59
21 00:33:09 611 MOREAU MICHEL V2M 3 M 21 CSMB MARSEILLE 13,57
22 00:33:17 558 GALLIGANI SEBASTIEN V1M 6 M 22 13,52
23 00:33:28 549 DUPONT CEDRIC V1M 7 M 23 13,45
24 00:33:45 744 RIGAUD JULIEN SEM 13 M 24 13,33
25 00:34:02 727 PALA ANTOINE V2M 4 M 25 13,22
26 00:34:12 643 VENTURINI LIONEL SEM 14 M 26 13,16
27 00:34:43 501 ALIX GUILLAUME JUM 1 M 27 SCO STE MARGUERITE 12,96
28 00:35:54 681 SMADJA PAUL-JEROME SEM 15 M 28 12,53
29 00:36:25 596 MANI MALIKA V1F 1 F 1 KMS 12,36
30 00:36:26 613 OBRE FREDERIC V1M 8 M 29 12,35
31 00:37:00 586 JUDAS ALAIN V3M 2 M 30 12,16
32 00:37:18 729 DELAVAUD BERNARD V2M 5 M 31 TEAM 12-13 12,06
33 00:37:33 604 MAUREL CYRIL V1M 9 M 32 CABBA 11,98
34 00:37:39 653 PIZA PATRICK V2M 6 M 33 11,95
35 00:38:05 661 LAPIERRE PASCAL V2M 7 M 34 11,82
36 00:38:10 619 REBOUL AXEL V1M 10 M 35 11,79
37 00:38:15 562 GARCIA NATHALIE V1F 2 F 2 11,76
38 00:38:23 540 DANIEL SOPHIE V1F 3 F 3 OLYMPIQUE CABRIES CALAS 11,72
39 00:38:24 651 VANKERREBROCCK ETIENNE SEM 16 M 36 11,72
40 00:38:28 547 DOMENECH JEAN-PIERRE V3M 3 M 37 ROGNAC ATHLETIC CLUB 11,70
41 00:38:36 742 HIDALGO RAPHAEL SEM 17 M 38 11,66
42 00:38:44 621 RITTLING JOEL V1M 11 M 39 11,62
43 00:39:23 603 MATHIEU GILBERT V2M 8 M 40 CARSAT SUD EST 11,43
44 00:39:31 502 ALLEGRE FRANCINE V2F 1 F 4 CEF MARATHONIEN 11,39
45 00:39:32 503 ALLEGRE MARC V2M 9 M 41 CEF MARATHONIEN 11,38
46 00:39:51 523 BRECHEMIER LUC V2M 10 M 42 M.A 11,29
47 00:39:59 736 BIANCO ELODIE V1F 4 F 5 CEF MARATHONIEN 11,25
48 00:40:12 516 BERTRAND CHRISTEL V1F 5 F 6 STADIUM CLUB MARIGNANAIS 11,19
49 00:40:20 572 GONZALEZ ANDRE V2M 11 M 43 CSPCG 13 11,16
50 00:40:32 560 GARCIA FREDERIC SEM 18 M 44 11,10
51 00:40:37 644 VERGNES AURELIE ESF 1 F 7 11,08
52 00:41:06 531 CHANIN PHILIPPE V2M 12 M 45 OVS 10,95
53 00:41:13 637 THOMASSIN NADINE V2F 2 F 8 10,92
54 00:41:23 580 HEYMES ELODIE JUF 1 F 9 10,87
55 00:41:40 721 DE-FALCO ROBERT V4M 1 M 46 ELAN LAMBESCAIN 10,80
56 00:41:51 646 ZOZOR BENOIT SEM 19 M 47 10,75
57 00:41:53 617 PROCACCINI MICHEL V3M 4 M 48 CARSAT SUD EST 10,74
58 00:42:01 532 CHANOUX ALIZEE SEF 1 F 10 10,71
59 00:42:22 655 LUGLI MATHIEU SEM 20 M 49 10,62
60 00:42:31 537 COLOMBANI CHRISTOPHE SEM 21 M 50 10,58
61 00:42:46 632 SIGLER ANNAELLE ESF 2 F 11 10,52
62 00:43:00 536 COLOMBANI CECILE SEF 2 F 12 10,47
63 00:43:18 556 FLORENTIN MURIELLE V1F 6 F 13 LES JOGGEURS AUBAGNAIS 10,39
64 00:43:19 740 QUARTERONI SERGE V2M 13 M 51 ST CHAMAS 10,39
65 00:43:30 541 DE-VITA ROBERT V2M 14 M 52 GIGNAC 10,34
66 00:43:38 553 FACHE VIRGINIE SEF 3 F 14 A SANTE 10,31
67 00:43:38 610 MONTOYA CHRISTIAN V3M 5 M 53 COURIR AU ROVE 10,31
68 00:43:42 542 DEFIX DANIELLE V2F 3 F 15 LES JOGGEURS AUBAGNAIS 10,30
69 00:43:56 601 MARTINAT AUDREY SEF 4 F 16 10,24
70 00:44:00 519 BOREL ALAIN V3M 6 M 54 ACEP VALREAS 10,23
71 00:44:07 527 CARDIN ELISE SEF 5 F 17 10,20
72 00:44:14 658 GARNIER STEPHANE SEM 22 M 55 10,17
73 00:44:16 682 PRADELLE THIERRY V1M 12 M 56 LA GOUVERNE 13 10,17
74 00:44:24 597 MAREZ GAELLE SEF 6 F 18 FOS OLYMPIQUE CLUB 10,14
75 00:44:27 722 BERTHAUD CYRILLE SEM 23 M 57 10,12
76 00:44:34 594 LOMBARD MATTHIEU SEM 24 M 58 10,10
77 00:44:36 508 BARRA ANAIS SEF 7 F 19 10,09
78 00:44:45 634 SORANO-PENALVER ANNIE V2F 4 F 20 AS REAL TOR 10,06
79 00:44:51 635 TAMAZOUNT NEBIA SEF 8 F 21 10,03
80 00:44:52 544 DEWAVRIN RODY V3M 7 M 59 AIX ATHLE PROVENCE 10,03
81 00:45:13 733 SANDRART SEBASTIEN SEM 25 M 60 9,95
82 00:45:20 746 PETIT JEAN-LUC V2M 15 M 61 9,93
83 00:45:24 623 RODRIGUEZ LAURENT SEM 26 M 62 9,91
84 00:45:30 659 FREMONDEAU-MUSSET GUILLAUME SEM 27 M 63 9,89
85 00:45:31 665 LIERICHE MAGGY V2F 5 F 22 AC MIRAMAS 9,89
86 00:45:31 639 TINAZZI BRIGITTE V2F 6 F 23 9,89
87 00:45:36 521 BOUTIN CYNTHIA SEF 9 F 24 9,87
88 00:45:36 640 TIXIER INGRID SEF 10 F 25 9,87
89 00:45:45 552 EVRARD KARINE V1F 7 F 26 CE STMICROELECTRONICS 9,84
90 00:45:46 509 BATAILLARD FREDERIC V1M 13 M 64 FOS OLYMPIQUE CLUB 9,83
91 00:45:46 642 VARENNE CHRISTINE V2F 7 F 27 LES PARESSEUX VAILLANTS 9,83
92 00:45:49 605 MAYO AURELIE SEF 11 F 28 SEBDANCE SCHOOL 9,82
93 00:45:50 570 GIESTAS KATIA SEF 12 F 29 9,82
94 00:45:54 660 DELORGES FIONA SEF 13 F 30 9,80
95 00:45:56 505 ARNAUD-GODDET MARJORIE SEF 14 F 31 9,80
96 00:45:59 636 THOMASSIN ALAIN V3M 8 M 65 9,79
97 00:46:17 747 DECARY FREDERIC V1M 14 M 66 9,72
98 00:46:19 559 GALY CELINE SEF 15 F 32 9,72
99 00:46:21 518 BLONDEL OLIVIER SEM 28 M 67 9,71
100 00:46:24 741 RAMOS JOSE V2M 16 M 68 SAINT CHAMAS 9,70